sensor_id;sensor_type;location;lat;lon;timestamp;pressure;altitude;pressure_sealevel;temperature;humidity
46223;BME280;31943;51.410;7.564;2022-09-09T00:01:49;99577.28;;;18.68;58.83
46223;BME280;31943;51.410;7.564;2022-09-09T00:04:23;99567.41;;;18.73;58.69
46223;BME280;31943;51.410;7.564;2022-09-09T00:07:00;99561.06;;;18.79;59.13
46223;BME280;31943;51.410;7.564;2022-09-09T00:09:28;99563.81;;;18.76;58.96
46223;BME280;31943;51.410;7.564;2022-09-09T00:12:00;99562.19;;;18.72;59.20
46223;BME280;31943;51.410;7.564;2022-09-09T00:14:35;99556.97;;;18.70;59.67
46223;BME280;31943;51.410;7.564;2022-09-09T00:17:08;99552.47;;;18.72;59.41
46223;BME280;31943;51.410;7.564;2022-09-09T00:19:39;99555.00;;;18.75;59.42
46223;BME280;31943;51.410;7.564;2022-09-09T00:22:15;99549.66;;;18.77;59.62
46223;BME280;31943;51.410;7.564;2022-09-09T00:24:44;99552.31;;;18.77;59.82
46223;BME280;31943;51.410;7.564;2022-09-09T00:27:16;99552.34;;;18.75;59.79
46223;BME280;31943;51.410;7.564;2022-09-09T00:29:49;99557.66;;;18.75;59.81
46223;BME280;31943;51.410;7.564;2022-09-09T00:32:18;99549.84;;;18.72;60.28
46223;BME280;31943;51.410;7.564;2022-09-09T00:34:48;99557.78;;;18.72;60.41
46223;BME280;31943;51.410;7.564;2022-09-09T00:37:15;99554.31;;;18.70;60.52
46223;BME280;31943;51.410;7.564;2022-09-09T00:39:42;99552.56;;;18.69;60.60
46223;BME280;31943;51.410;7.564;2022-09-09T00:42:14;99546.47;;;18.67;60.86
46223;BME280;31943;51.410;7.564;2022-09-09T00:44:56;99537.66;;;18.68;60.62
46223;BME280;31943;51.410;7.564;2022-09-09T00:47:43;99542.13;;;18.66;60.84
46223;BME280;31943;51.410;7.564;2022-09-09T00:50:17;99533.28;;;18.67;60.91
46223;BME280;31943;51.410;7.564;2022-09-09T00:52:54;99536.75;;;18.68;60.79
46223;BME280;31943;51.410;7.564;2022-09-09T00:55:31;99531.56;;;18.66;60.90
46223;BME280;31943;51.410;7.564;2022-09-09T00:57:59;99534.25;;;18.65;60.94
46223;BME280;31943;51.410;7.564;2022-09-09T01:00:27;99534.28;;;18.63;61.03
46223;BME280;31943;51.410;7.564;2022-09-09T01:03:19;99536.09;;;18.63;61.08
46223;BME280;31943;51.410;7.564;2022-09-09T01:05:49;99538.00;;;18.57;61.25
46223;BME280;31943;51.410;7.564;2022-09-09T01:08:35;99526.59;;;18.57;61.23
46223;BME280;31943;51.410;7.564;2022-09-09T01:11:03;99528.50;;;18.52;61.24
46223;BME280;31943;51.410;7.564;2022-09-09T01:13:31;99530.47;;;18.47;61.25
46223;BME280;31943;51.410;7.564;2022-09-09T01:15:59;99526.25;;;18.41;61.21
46223;BME280;31943;51.410;7.564;2022-09-09T01:18:32;99524.66;;;18.35;61.60
46223;BME280;31943;51.410;7.564;2022-09-09T01:21:05;99530.75;;;18.37;61.24
46223;BME280;31943;51.410;7.564;2022-09-09T01:23:44;99529.91;;;18.37;61.45
46223;BME280;31943;51.410;7.564;2022-09-09T01:26:18;99536.03;;;18.37;61.63
46223;BME280;31943;51.410;7.564;2022-09-09T01:28:47;99533.56;;;18.33;61.47
46223;BME280;31943;51.410;7.564;2022-09-09T01:31:16;99532.69;;;18.32;61.32
46223;BME280;31943;51.410;7.564;2022-09-09T01:33:43;99533.63;;;18.31;61.24
46223;BME280;31943;51.410;7.564;2022-09-09T01:36:11;99531.81;;;18.32;61.25
46223;BME280;31943;51.410;7.564;2022-09-09T01:38:39;99527.41;;;18.32;61.17
46223;BME280;31943;51.410;7.564;2022-09-09T01:41:05;99534.50;;;18.30;61.12
46223;BME280;31943;51.410;7.564;2022-09-09T01:43:32;99533.69;;;18.28;61.34
46223;BME280;31943;51.410;7.564;2022-09-09T01:46:00;99535.53;;;18.26;61.42
46223;BME280;31943;51.410;7.564;2022-09-09T01:48:27;99528.53;;;18.25;61.56
46223;BME280;31943;51.410;7.564;2022-09-09T01:50:53;99518.91;;;18.23;61.32
46223;BME280;31943;51.410;7.564;2022-09-09T01:53:20;99528.47;;;18.27;61.32
46223;BME280;31943;51.410;7.564;2022-09-09T01:55:57;99521.38;;;18.29;61.53
46223;BME280;31943;51.410;7.564;2022-09-09T01:58:34;99525.78;;;18.28;61.28
46223;BME280;31943;51.410;7.564;2022-09-09T02:01:07;99517.81;;;18.30;61.58
46223;BME280;31943;51.410;7.564;2022-09-09T02:03:35;99529.34;;;18.27;61.52
46223;BME280;31943;51.410;7.564;2022-09-09T02:06:08;99519.63;;;18.28;61.27
46223;BME280;31943;51.410;7.564;2022-09-09T02:08:42;99516.16;;;18.27;61.63
46223;BME280;31943;51.410;7.564;2022-09-09T02:11:13;99525.91;;;18.25;61.29
46223;BME280;31943;51.410;7.564;2022-09-09T02:13:41;99518.81;;;18.26;61.46
46223;BME280;31943;51.410;7.564;2022-09-09T02:16:12;99532.00;;;18.27;61.52
46223;BME280;31943;51.410;7.564;2022-09-09T02:18:44;99528.47;;;18.27;61.11
46223;BME280;31943;51.410;7.564;2022-09-09T02:21:14;99526.66;;;18.29;61.19
46223;BME280;31943;51.410;7.564;2022-09-09T02:23:42;99525.66;;;18.33;61.17
46223;BME280;31943;51.410;7.564;2022-09-09T02:26:09;99538.84;;;18.33;61.04
46223;BME280;31943;51.410;7.564;2022-09-09T02:28:36;99531.06;;;18.28;61.41
46223;BME280;31943;51.410;7.564;2022-09-09T02:31:05;99530.38;;;18.23;61.44
46223;BME280;31943;51.410;7.564;2022-09-09T02:33:35;99526.91;;;18.21;61.39
46223;BME280;31943;51.410;7.564;2022-09-09T02:36:03;99529.56;;;18.21;61.25
46223;BME280;31943;51.410;7.564;2022-09-09T02:38:35;99533.00;;;18.23;61.52
46223;BME280;31943;51.410;7.564;2022-09-09T02:41:02;99530.41;;;18.22;61.29
46223;BME280;31943;51.410;7.564;2022-09-09T02:43:31;99529.47;;;18.23;61.57
46223;BME280;31943;51.410;7.564;2022-09-09T02:46:02;99520.91;;;18.16;61.76
46223;BME280;31943;51.410;7.564;2022-09-09T02:48:34;99520.19;;;18.11;61.74
46223;BME280;31943;51.410;7.564;2022-09-09T02:51:06;99523.63;;;18.13;61.69
46223;BME280;31943;51.410;7.564;2022-09-09T02:53:39;99525.47;;;18.11;61.68
46223;BME280;31943;51.410;7.564;2022-09-09T02:56:13;99527.44;;;18.04;61.79
46223;BME280;31943;51.410;7.564;2022-09-09T02:58:41;99524.84;;;18.03;61.51
46223;BME280;31943;51.410;7.564;2022-09-09T03:01:08;99525.78;;;18.02;62.01
46223;BME280;31943;51.410;7.564;2022-09-09T03:03:35;99525.81;;;18.00;61.78
46223;BME280;31943;51.410;7.564;2022-09-09T03:06:01;99527.69;;;17.96;61.62
46223;BME280;31943;51.410;7.564;2022-09-09T03:08:27;99526.97;;;17.91;61.99
46223;BME280;31943;51.410;7.564;2022-09-09T03:10:53;99529.53;;;17.94;62.13
46223;BME280;31943;51.410;7.564;2022-09-09T03:13:19;99531.44;;;17.89;62.12
46223;BME280;31943;51.410;7.564;2022-09-09T03:15:45;99539.31;;;17.91;61.71
46223;BME280;31943;51.410;7.564;2022-09-09T03:18:10;99537.53;;;17.91;62.00
46223;BME280;31943;51.410;7.564;2022-09-09T03:20:38;99533.22;;;17.89;62.07
46223;BME280;31943;51.410;7.564;2022-09-09T03:23:03;99529.72;;;17.88;62.19
46223;BME280;31943;51.410;7.564;2022-09-09T03:25:29;99531.59;;;17.85;62.28
46223;BME280;31943;51.410;7.564;2022-09-09T03:27:55;99518.41;;;17.83;62.44
46223;BME280;31943;51.410;7.564;2022-09-09T03:30:22;99514.94;;;17.81;62.33
46223;BME280;31943;51.410;7.564;2022-09-09T03:32:48;99515.75;;;17.83;62.45
46223;BME280;31943;51.410;7.564;2022-09-09T03:35:14;99515.78;;;17.82;62.20
46223;BME280;31943;51.410;7.564;2022-09-09T03:37:43;99511.31;;;17.85;62.17
46223;BME280;31943;51.410;7.564;2022-09-09T03:40:10;99512.25;;;17.84;62.37
46223;BME280;31943;51.410;7.564;2022-09-09T03:42:35;99518.38;;;17.85;62.54
46223;BME280;31943;51.410;7.564;2022-09-09T03:45:01;99513.97;;;17.85;62.50
46223;BME280;31943;51.410;7.564;2022-09-09T03:47:27;99521.94;;;17.84;62.11
46223;BME280;31943;51.410;7.564;2022-09-09T03:49:52;99517.63;;;17.79;62.49
46223;BME280;31943;51.410;7.564;2022-09-09T03:52:18;99514.97;;;17.79;62.67
46223;BME280;31943;51.410;7.564;2022-09-09T03:54:45;99514.16;;;17.77;62.25
46223;BME280;31943;51.410;7.564;2022-09-09T03:57:12;99518.59;;;17.77;62.50
46223;BME280;31943;51.410;7.564;2022-09-09T03:59:38;99516.00;;;17.75;62.75
46223;BME280;31943;51.410;7.564;2022-09-09T04:02:06;99515.13;;;17.75;62.78
46223;BME280;31943;51.410;7.564;2022-09-09T04:04:32;99522.31;;;17.70;62.82
46223;BME280;31943;51.410;7.564;2022-09-09T04:06:57;99525.84;;;17.70;62.90
46223;BME280;31943;51.410;7.564;2022-09-09T04:09:23;99526.75;;;17.69;62.77
46223;BME280;31943;51.410;7.564;2022-09-09T04:11:50;99517.19;;;17.65;63.05
46223;BME280;31943;51.410;7.564;2022-09-09T04:14:16;99525.88;;;17.69;62.76
46223;BME280;31943;51.410;7.564;2022-09-09T04:16:41;99525.78;;;17.72;63.14
46223;BME280;31943;51.410;7.564;2022-09-09T04:19:07;99528.69;;;17.64;63.06
46223;BME280;31943;51.410;7.564;2022-09-09T04:21:32;99525.16;;;17.64;63.12
46223;BME280;31943;51.410;7.564;2022-09-09T04:23:58;99525.16;;;17.64;63.34
46223;BME280;31943;51.410;7.564;2022-09-09T04:26:24;99522.44;;;17.67;63.28
46223;BME280;31943;51.410;7.564;2022-09-09T04:28:51;99526.78;;;17.68;63.14
46223;BME280;31943;51.410;7.564;2022-09-09T04:31:19;99519.78;;;17.67;63.25
46223;BME280;31943;51.410;7.564;2022-09-09T04:33:46;99521.66;;;17.63;63.32
46223;BME280;31943;51.410;7.564;2022-09-09T04:36:12;99520.81;;;17.63;63.38
46223;BME280;31943;51.410;7.564;2022-09-09T04:38:38;99526.91;;;17.65;63.67
46223;BME280;31943;51.410;7.564;2022-09-09T04:41:04;99522.47;;;17.65;63.72
46223;BME280;31943;51.410;7.564;2022-09-09T04:43:30;99529.50;;;17.66;63.91
46223;BME280;31943;51.410;7.564;2022-09-09T04:45:57;99529.56;;;17.63;63.63
46223;BME280;31943;51.410;7.564;2022-09-09T04:48:23;99530.34;;;17.67;63.51
46223;BME280;31943;51.410;7.564;2022-09-09T04:50:56;99532.88;;;17.70;63.29
46223;BME280;31943;51.410;7.564;2022-09-09T04:53:22;99526.91;;;17.65;63.47
46223;BME280;31943;51.410;7.564;2022-09-09T04:55:48;99525.34;;;17.57;63.58
46223;BME280;31943;51.410;7.564;2022-09-09T04:58:14;99533.06;;;17.64;63.66
46223;BME280;31943;51.410;7.564;2022-09-09T05:00:40;99534.69;;;17.68;63.74
46223;BME280;31943;51.410;7.564;2022-09-09T05:03:07;99527.59;;;17.70;63.29
46223;BME280;31943;51.410;7.564;2022-09-09T05:05:33;99523.91;;;17.75;63.34
46223;BME280;31943;51.410;7.564;2022-09-09T05:08:01;99521.22;;;17.77;63.16
46223;BME280;31943;51.410;7.564;2022-09-09T05:10:27;99516.91;;;17.74;63.19
46223;BME280;31943;51.410;7.564;2022-09-09T05:12:52;99531.06;;;17.72;63.55
46223;BME280;31943;51.410;7.564;2022-09-09T05:15:18;99535.50;;;17.70;63.59
46223;BME280;31943;51.410;7.564;2022-09-09T05:17:44;99531.16;;;17.69;63.50
46223;BME280;31943;51.410;7.564;2022-09-09T05:20:11;99532.75;;;17.74;63.00
46223;BME280;31943;51.410;7.564;2022-09-09T05:22:36;99523.09;;;17.73;63.11
46223;BME280;31943;51.410;7.564;2022-09-09T05:25:03;99532.88;;;17.70;63.48
46223;BME280;31943;51.410;7.564;2022-09-09T05:27:28;99528.53;;;17.69;63.47
46223;BME280;31943;51.410;7.564;2022-09-09T05:29:54;99524.97;;;17.70;63.37
46223;BME280;31943;51.410;7.564;2022-09-09T05:32:19;99523.91;;;17.75;63.25
46223;BME280;31943;51.410;7.564;2022-09-09T05:34:45;99522.97;;;17.78;63.07
46223;BME280;31943;51.410;7.564;2022-09-09T05:37:12;99532.56;;;17.81;63.42
46223;BME280;31943;51.410;7.564;2022-09-09T05:39:38;99531.53;;;17.86;62.90
46223;BME280;31943;51.410;7.564;2022-09-09T05:42:04;99533.22;;;17.89;63.08
46223;BME280;31943;51.410;7.564;2022-09-09T05:44:30;99537.53;;;17.91;63.10
46223;BME280;31943;51.410;7.564;2022-09-09T05:46:56;99534.94;;;17.90;62.96
46223;BME280;31943;51.410;7.564;2022-09-09T05:49:21;99532.25;;;17.91;63.12
46223;BME280;31943;51.410;7.564;2022-09-09T05:51:47;99537.63;;;17.88;63.13
46223;BME280;31943;51.410;7.564;2022-09-09T05:54:14;99529.69;;;17.90;62.71
46223;BME280;31943;51.410;7.564;2022-09-09T05:56:40;99522.63;;;17.90;62.90
46223;BME280;31943;51.410;7.564;2022-09-09T05:59:05;99529.72;;;17.88;62.91
46223;BME280;31943;51.410;7.564;2022-09-09T06:01:34;99527.94;;;17.89;62.93
46223;BME280;31943;51.410;7.564;2022-09-09T06:04:00;99541.28;;;17.84;63.16
46223;BME280;31943;51.410;7.564;2022-09-09T06:06:27;99539.34;;;17.89;63.12
46223;BME280;31943;51.410;7.564;2022-09-09T06:08:54;99542.63;;;17.97;62.92
46223;BME280;31943;51.410;7.564;2022-09-09T06:11:23;99542.53;;;18.01;62.84
46223;BME280;31943;51.410;7.564;2022-09-09T06:13:49;99550.25;;;18.07;62.77
46223;BME280;31943;51.410;7.564;2022-09-09T06:16:16;99544.88;;;18.10;62.82
46223;BME280;31943;51.410;7.564;2022-09-09T06:18:45;99540.41;;;18.12;62.42
46223;BME280;31943;51.410;7.564;2022-09-09T06:21:15;99543.13;;;18.09;62.62
46223;BME280;31943;51.410;7.564;2022-09-09T06:23:41;99543.03;;;18.12;62.62
46223;BME280;31943;51.410;7.564;2022-09-09T06:26:10;99537.00;;;18.08;62.74
46223;BME280;31943;51.410;7.564;2022-09-09T06:28:38;99542.44;;;18.04;62.93
46223;BME280;31943;51.410;7.564;2022-09-09T06:31:05;99544.31;;;18.00;62.75
46223;BME280;31943;51.410;7.564;2022-09-09T06:33:32;99544.34;;;17.98;63.21
46223;BME280;31943;51.410;7.564;2022-09-09T06:35:58;99549.53;;;18.02;63.02
46223;BME280;31943;51.410;7.564;2022-09-09T06:38:24;99546.13;;;17.98;63.27
46223;BME280;31943;51.410;7.564;2022-09-09T06:40:53;99538.25;;;17.96;63.42
46223;BME280;31943;51.410;7.564;2022-09-09T06:43:19;99547.63;;;18.05;63.02
46223;BME280;31943;51.410;7.564;2022-09-09T06:45:54;99542.28;;;18.08;62.95
46223;BME280;31943;51.410;7.564;2022-09-09T06:48:20;99537.16;;;18.04;63.11
46223;BME280;31943;51.410;7.564;2022-09-09T06:50:46;99555.63;;;18.04;63.26
46223;BME280;31943;51.410;7.564;2022-09-09T06:53:12;99555.47;;;18.08;63.12
46223;BME280;31943;51.410;7.564;2022-09-09T06:55:37;99557.06;;;18.14;62.68
46223;BME280;31943;51.410;7.564;2022-09-09T06:58:07;99557.22;;;18.09;63.04
46223;BME280;31943;51.410;7.564;2022-09-09T07:00:34;99551.13;;;18.07;62.69
46223;BME280;31943;51.410;7.564;2022-09-09T07:03:01;99548.81;;;17.96;62.78
46223;BME280;31943;51.410;7.564;2022-09-09T07:05:26;99558.59;;;17.93;63.56
46223;BME280;31943;51.410;7.564;2022-09-09T07:07:52;99559.75;;;17.84;63.68
46223;BME280;31943;51.410;7.564;2022-09-09T07:10:17;99553.72;;;17.79;63.86
46223;BME280;31943;51.410;7.564;2022-09-09T07:12:43;99558.19;;;17.77;63.88
46223;BME280;31943;51.410;7.564;2022-09-09T07:15:09;99566.25;;;17.72;64.13
46223;BME280;31943;51.410;7.564;2022-09-09T07:17:35;99563.31;;;17.82;64.13
46223;BME280;31943;51.410;7.564;2022-09-09T07:20:04;99571.84;;;17.91;64.04
46223;BME280;31943;51.410;7.564;2022-09-09T07:22:29;99568.09;;;17.98;64.05
46223;BME280;31943;51.410;7.564;2022-09-09T07:24:55;99566.03;;;18.08;63.75
46223;BME280;31943;51.410;7.564;2022-09-09T07:27:20;99562.09;;;18.22;63.28
46223;BME280;31943;51.410;7.564;2022-09-09T07:29:46;99569.66;;;18.32;63.06
46223;BME280;31943;51.410;7.564;2022-09-09T07:32:12;99565.91;;;18.40;62.42
46223;BME280;31943;51.410;7.564;2022-09-09T07:34:37;99565.91;;;18.40;62.26
46223;BME280;31943;51.410;7.564;2022-09-09T07:37:05;99572.94;;;18.41;62.47
46223;BME280;31943;51.410;7.564;2022-09-09T07:39:31;99566.69;;;18.43;62.34
46223;BME280;31943;51.410;7.564;2022-09-09T07:41:56;99566.72;;;18.42;62.18
46223;BME280;31943;51.410;7.564;2022-09-09T07:44:23;99568.59;;;18.38;62.36
46223;BME280;31943;51.410;7.564;2022-09-09T07:46:49;99570.22;;;18.42;62.31
46223;BME280;31943;51.410;7.564;2022-09-09T07:49:15;99577.00;;;18.51;61.74
46223;BME280;31943;51.410;7.564;2022-09-09T07:51:43;99577.38;;;18.65;61.48
46223;BME280;31943;51.410;7.564;2022-09-09T07:54:13;99568.34;;;18.72;61.35
46223;BME280;31943;51.410;7.564;2022-09-09T07:56:40;99578.59;;;18.82;61.35
46223;BME280;31943;51.410;7.564;2022-09-09T07:59:06;99579.78;;;19.00;61.20
46223;BME280;31943;51.410;7.564;2022-09-09T08:01:34;99579.41;;;19.09;60.94
46223;BME280;31943;51.410;7.564;2022-09-09T08:04:03;99578.69;;;19.05;60.58
46223;BME280;31943;51.410;7.564;2022-09-09T08:06:31;99577.97;;;19.00;60.42
46223;BME280;31943;51.410;7.564;2022-09-09T08:08:57;99582.28;;;19.03;60.46
46223;BME280;31943;51.410;7.564;2022-09-09T08:11:26;99577.13;;;19.00;60.65
46223;BME280;31943;51.410;7.564;2022-09-09T08:13:53;99583.50;;;18.94;60.57
46223;BME280;31943;51.410;7.564;2022-09-09T08:16:21;99585.41;;;18.89;60.74
46223;BME280;31943;51.410;7.564;2022-09-09T08:18:47;99587.09;;;18.91;60.74
46223;BME280;31943;51.410;7.564;2022-09-09T08:21:15;99582.25;;;19.04;60.30
46223;BME280;31943;51.410;7.564;2022-09-09T08:23:43;99584.22;;;19.23;59.79
46223;BME280;31943;51.410;7.564;2022-09-09T08:26:11;99582.53;;;19.45;59.59
46223;BME280;31943;51.410;7.564;2022-09-09T08:28:39;99580.50;;;19.52;59.37
46223;BME280;31943;51.410;7.564;2022-09-09T08:31:11;99585.97;;;19.71;58.17
46223;BME280;31943;51.410;7.564;2022-09-09T08:33:37;99586.91;;;19.93;57.95
46223;BME280;31943;51.410;7.564;2022-09-09T08:36:03;99584.38;;;20.12;57.49
46223;BME280;31943;51.410;7.564;2022-09-09T08:38:29;99586.72;;;20.20;56.58
46223;BME280;31943;51.410;7.564;2022-09-09T08:40:58;99580.06;;;20.32;56.21
46223;BME280;31943;51.410;7.564;2022-09-09T08:43:25;99583.09;;;20.45;55.82
46223;BME280;31943;51.410;7.564;2022-09-09T08:46:00;99595.53;;;20.65;56.05
46223;BME280;31943;51.410;7.564;2022-09-09T08:48:44;99580.06;;;20.76;55.91
46223;BME280;31943;51.410;7.564;2022-09-09T08:51:14;99590.38;;;20.82;55.31
46223;BME280;31943;51.410;7.564;2022-09-09T08:53:42;99573.75;;;20.79;55.03
46223;BME280;31943;51.410;7.564;2022-09-09T08:56:11;99585.81;;;20.86;54.66
46223;BME280;31943;51.410;7.564;2022-09-09T08:58:44;99583.97;;;20.88;54.41
46223;BME280;31943;51.410;7.564;2022-09-09T09:01:25;99579.13;;;20.98;54.04
46223;BME280;31943;51.410;7.564;2022-09-09T09:03:57;99583.63;;;20.96;53.98
46223;BME280;31943;51.410;7.564;2022-09-09T09:06:35;99583.94;;;21.08;53.91
46223;BME280;31943;51.410;7.564;2022-09-09T09:09:10;99591.00;;;21.09;53.65
46223;BME280;31943;51.410;7.564;2022-09-09T09:11:39;99579.88;;;21.20;53.52
46223;BME280;31943;51.410;7.564;2022-09-09T09:14:09;99590.09;;;21.29;52.87
46223;BME280;31943;51.410;7.564;2022-09-09T09:16:43;99587.28;;;21.32;52.40
46223;BME280;31943;51.410;7.564;2022-09-09T09:19:13;99588.63;;;21.22;52.01
46223;BME280;31943;51.410;7.564;2022-09-09T09:21:42;99589.44;;;21.24;51.55
46223;BME280;31943;51.410;7.564;2022-09-09T09:24:15;99588.81;;;21.38;50.87
46223;BME280;31943;51.410;7.564;2022-09-09T09:26:43;99585.47;;;21.35;50.74
46223;BME280;31943;51.410;7.564;2022-09-09T09:29:11;99584.44;;;21.37;50.36
46223;BME280;31943;51.410;7.564;2022-09-09T09:31:37;99580.66;;;21.43;50.41
46223;BME280;31943;51.410;7.564;2022-09-09T09:34:05;99576.63;;;21.34;50.81
46223;BME280;31943;51.410;7.564;2022-09-09T09:36:34;99584.72;;;21.31;51.03
46223;BME280;31943;51.410;7.564;2022-09-09T09:39:02;99579.75;;;21.44;50.78
46223;BME280;31943;51.410;7.564;2022-09-09T09:41:32;99577.06;;;21.64;50.64
46223;BME280;31943;51.410;7.564;2022-09-09T09:43:59;99581.06;;;21.92;49.97
46223;BME280;31943;51.410;7.564;2022-09-09T09:46:25;99579.34;;;22.29;48.95
46223;BME280;31943;51.410;7.564;2022-09-09T09:48:56;99578.09;;;22.54;48.02
46223;BME280;31943;51.410;7.564;2022-09-09T09:51:24;99584.91;;;22.77;47.97
46223;BME280;31943;51.410;7.564;2022-09-09T09:53:51;99581.56;;;22.73;48.15
46223;BME280;31943;51.410;7.564;2022-09-09T09:56:16;99587.34;;;22.46;48.38
46223;BME280;31943;51.410;7.564;2022-09-09T09:58:51;99580.34;;;22.07;48.85
46223;BME280;31943;51.410;7.564;2022-09-09T10:01:22;99585.72;;;21.87;49.63
46223;BME280;31943;51.410;7.564;2022-09-09T10:03:51;99591.47;;;21.78;49.46
46223;BME280;31943;51.410;7.564;2022-09-09T10:06:16;99589.31;;;21.67;48.45
46223;BME280;31943;51.410;7.564;2022-09-09T10:08:46;99588.47;;;21.66;48.34
46223;BME280;31943;51.410;7.564;2022-09-09T10:11:24;99589.19;;;21.70;48.10
46223;BME280;31943;51.410;7.564;2022-09-09T10:14:00;99588.41;;;21.68;47.73
46223;BME280;31943;51.410;7.564;2022-09-09T10:16:40;99586.34;;;21.54;47.64
46223;BME280;31943;51.410;7.564;2022-09-09T10:19:14;99579.28;;;21.55;47.76
46223;BME280;31943;51.410;7.564;2022-09-09T10:21:53;99577.91;;;21.84;47.22
46223;BME280;31943;51.410;7.564;2022-09-09T10:24:54;99576.78;;;21.89;46.89
46223;BME280;31943;51.410;7.564;2022-09-09T10:27:28;99589.09;;;21.90;47.20
46223;BME280;31943;51.410;7.564;2022-09-09T10:30:03;99574.34;;;22.21;46.83
46223;BME280;31943;51.410;7.564;2022-09-09T10:32:45;99572.22;;;22.29;46.26
46223;BME280;31943;51.410;7.564;2022-09-09T10:35:19;99574.63;;;22.34;46.60
46223;BME280;31943;51.410;7.564;2022-09-09T10:40:49;99566.63;;;22.88;44.57
46223;BME280;31943;51.410;7.564;2022-09-09T10:43:34;99562.00;;;22.92;44.25
46223;BME280;31943;51.410;7.564;2022-09-09T10:46:07;99562.00;;;22.92;43.70
46223;BME280;31943;51.410;7.564;2022-09-09T10:48:38;99568.19;;;22.57;45.03
46223;BME280;31943;51.410;7.564;2022-09-09T10:51:30;99569.97;;;22.20;45.23
46223;BME280;31943;51.410;7.564;2022-09-09T10:54:11;99555.91;;;21.99;45.68
46223;BME280;31943;51.410;7.564;2022-09-09T10:56:49;99572.44;;;21.87;46.21
46223;BME280;31943;51.410;7.564;2022-09-09T10:59:20;99574.91;;;21.91;46.91
46223;BME280;31943;51.410;7.564;2022-09-09T11:01:52;99574.72;;;22.14;46.03
46223;BME280;31943;51.410;7.564;2022-09-09T11:04:22;99568.22;;;22.38;45.01
46223;BME280;31943;51.410;7.564;2022-09-09T11:06:52;99576.94;;;22.23;45.80
46223;BME280;31943;51.410;7.564;2022-09-09T11:09:24;99588.22;;;22.09;46.04
46223;BME280;31943;51.410;7.564;2022-09-09T11:11:54;99579.69;;;22.02;46.50
46223;BME280;31943;51.410;7.564;2022-09-09T11:14:29;99578.94;;;22.18;47.15
46223;BME280;31943;51.410;7.564;2022-09-09T11:16:58;99588.94;;;22.31;46.09
46223;BME280;31943;51.410;7.564;2022-09-09T11:19:29;99582.00;;;22.64;46.47
46223;BME280;31943;51.410;7.564;2022-09-09T11:21:57;99581.63;;;22.89;45.91
46223;BME280;31943;51.410;7.564;2022-09-09T11:24:28;99588.13;;;23.18;45.87
46223;BME280;31943;51.410;7.564;2022-09-09T11:27:02;99580.03;;;23.37;44.96
46223;BME280;31943;51.410;7.564;2022-09-09T11:29:48;99568.75;;;23.32;44.98
46223;BME280;31943;51.410;7.564;2022-09-09T11:32:28;99568.19;;;23.43;44.81
46223;BME280;31943;51.410;7.564;2022-09-09T11:35:07;99566.72;;;23.37;45.45
46223;BME280;31943;51.410;7.564;2022-09-09T11:37:55;99560.84;;;23.64;44.87
46223;BME280;31943;51.410;7.564;2022-09-09T11:40:24;99562.06;;;23.74;45.24
46223;BME280;31943;51.410;7.564;2022-09-09T11:43:01;99561.13;;;23.91;44.57
46223;BME280;31943;51.410;7.564;2022-09-09T11:45:28;99550.22;;;23.80;43.86
46223;BME280;31943;51.410;7.564;2022-09-09T11:47:55;99563.56;;;23.96;44.29
46223;BME280;31943;51.410;7.564;2022-09-09T11:50:33;99557.09;;;23.84;44.21
46223;BME280;31943;51.410;7.564;2022-09-09T11:55:45;99557.94;;;24.16;44.51
46223;BME280;31943;51.410;7.564;2022-09-09T11:58:17;99562.81;;;24.24;43.73
46223;BME280;31943;51.410;7.564;2022-09-09T12:00:45;99562.03;;;24.38;43.98
46223;BME280;31943;51.410;7.564;2022-09-09T12:03:33;99567.28;;;24.39;43.35
46223;BME280;31943;51.410;7.564;2022-09-09T12:06:09;99557.41;;;24.25;42.94
46223;BME280;31943;51.410;7.564;2022-09-09T12:08:37;99556.22;;;24.31;42.36
46223;BME280;31943;51.410;7.564;2022-09-09T12:11:06;99553.66;;;24.44;41.12
46223;BME280;31943;51.410;7.564;2022-09-09T12:13:33;99555.09;;;24.65;40.51
46223;BME280;31943;51.410;7.564;2022-09-09T12:16:00;99542.84;;;24.77;41.07
46223;BME280;31943;51.410;7.564;2022-09-09T12:18:32;99555.31;;;24.77;41.29
46223;BME280;31943;51.410;7.564;2022-09-09T12:21:05;99554.25;;;24.49;41.60
46223;BME280;31943;51.410;7.564;2022-09-09T12:23:40;99555.09;;;24.19;41.45
46223;BME280;31943;51.410;7.564;2022-09-09T12:26:21;99555.84;;;23.74;42.10
46223;BME280;31943;51.410;7.564;2022-09-09T12:28:58;99551.81;;;23.51;43.01
46223;BME280;31943;51.410;7.564;2022-09-09T12:31:31;99554.81;;;23.44;43.40
46223;BME280;31943;51.410;7.564;2022-09-09T12:34:09;99548.09;;;23.37;43.60
46223;BME280;31943;51.410;7.564;2022-09-09T12:36:35;99548.41;;;23.31;43.46
46223;BME280;31943;51.410;7.564;2022-09-09T12:39:10;99542.88;;;23.18;43.97
46223;BME280;31943;51.410;7.564;2022-09-09T12:41:41;99555.97;;;22.88;43.29
46223;BME280;31943;51.410;7.564;2022-09-09T12:44:09;99553.63;;;22.64;43.59
46223;BME280;31943;51.410;7.564;2022-09-09T12:46:38;99554.47;;;22.47;43.50
46223;BME280;31943;51.410;7.564;2022-09-09T12:49:05;99544.91;;;22.26;43.81
46223;BME280;31943;51.410;7.564;2022-09-09T12:51:32;99540.78;;;22.38;43.93
46223;BME280;31943;51.410;7.564;2022-09-09T12:53:59;99530.47;;;22.84;43.21
46223;BME280;31943;51.410;7.564;2022-09-09T12:56:27;99525.06;;;23.36;42.39
46223;BME280;31943;51.410;7.564;2022-09-09T12:58:54;99524.13;;;23.37;41.98
46223;BME280;31943;51.410;7.564;2022-09-09T13:01:24;99529.44;;;23.37;42.36
46223;BME280;31943;51.410;7.564;2022-09-09T13:03:50;99532.59;;;23.28;41.16
46223;BME280;31943;51.410;7.564;2022-09-09T13:06:20;99521.78;;;23.15;41.35
46223;BME280;31943;51.410;7.564;2022-09-09T13:08:46;99518.75;;;23.05;42.17
46223;BME280;31943;51.410;7.564;2022-09-09T13:11:15;99517.25;;;22.82;42.30
46223;BME280;31943;51.410;7.564;2022-09-09T13:13:43;99523.81;;;22.75;42.92
46223;BME280;31943;51.410;7.564;2022-09-09T13:16:23;99523.28;;;22.68;42.13
46223;BME280;31943;51.410;7.564;2022-09-09T13:18:51;99519.28;;;22.60;43.28